Aviation Digital Data Service (ADDS)

Output produced by METARs form (1149 UTC 23 June 2018)
found at http://www.aviationweather.gov/adds/metars/
 
METAR text: KPIT 231134Z 17004KT 8SM FEW013 SCT024 SCT120 18/17 A2978 RMK AO2 T01830172
Conditions at: KPIT (PITTSBURGH , PA, US) observed 1134 UTC 23 June 2018
Temperature: 18.3°C (65°F)
Dewpoint: 17.2°C (63°F) [RH = 93%]
Pressure (altimeter): 29.78 inches Hg (1008.5 mb)
Winds: from the S (170 degrees) at 5 MPH (4 knots; 2.1 m/s)
Visibility: 8 miles (13 km)
Ceiling: at least 12,000 feet AGL
Clouds: few clouds at 1300 feet AGL
scattered clouds at 2400 feet AGL
scattered clouds at 12000 feet AGL
Weather: no significant weather observed at this time

METAR text: KPIT 231118Z 16005KT 10SM OVC014 18/17 A2977 RMK AO2 T01830172
Conditions at: KPIT (PITTSBURGH , PA, US) observed 1118 UTC 23 June 2018
Temperature: 18.3°C (65°F)
Dewpoint: 17.2°C (63°F) [RH = 93%]
Pressure (altimeter): 29.77 inches Hg (1008.2 mb)
Winds: from the SSE (160 degrees) at 6 MPH (5 knots; 2.6 m/s)
Visibility: 10 or more miles (16+ km)
Ceiling: 1400 feet AGL
Clouds: overcast cloud deck at 1400 feet AGL
Weather: no significant weather observed at this time

METAR text: KPIT 231051Z 17003KT 10SM OVC015 18/17 A2977 RMK AO2 SLP081 T01830172
Conditions at: KPIT (PITTSBURGH , PA, US) observed 1051 UTC 23 June 2018
Temperature: 18.3°C (65°F)
Dewpoint: 17.2°C (63°F) [RH = 93%]
Pressure (altimeter): 29.77 inches Hg (1008.2 mb)
[Sea-level pressure: 1008.1 mb]
Winds: from the S (170 degrees) at 3 MPH (3 knots; 1.6 m/s)
Visibility: 10 or more miles (16+ km)
Ceiling: 1500 feet AGL
Clouds: overcast cloud deck at 1500 feet AGL
Weather: no significant weather observed at this time

METAR text: KPIT 231016Z 13004KT 10SM FEW009 BKN022 OVC041 18/17 A2976 RMK AO2 T01780172
Conditions at: KPIT (PITTSBURGH , PA, US) observed 1016 UTC 23 June 2018
Temperature: 17.8°C (64°F)
Dewpoint: 17.2°C (63°F) [RH = 96%]
Pressure (altimeter): 29.76 inches Hg (1007.9 mb)
Winds: from the SE (130 degrees) at 5 MPH (4 knots; 2.1 m/s)
Visibility: 10 or more miles (16+ km)
Ceiling: 2200 feet AGL
Clouds: few clouds at 900 feet AGL
broken clouds at 2200 feet AGL
overcast cloud deck at 4100 feet AGL
Weather: no significant weather observed at this time

METAR text: KPIT 230951Z 12005KT 10SM SCT025 BKN036 OVC050 18/17 A2975 RMK AO2 LTG DSNT NE RAE49 SLP077 P0014 T01780172
Conditions at: KPIT (PITTSBURGH , PA, US) observed 0951 UTC 23 June 2018
Temperature: 17.8°C (64°F)
Dewpoint: 17.2°C (63°F) [RH = 96%]
Pressure (altimeter): 29.75 inches Hg (1007.5 mb)
[Sea-level pressure: 1007.7 mb]
Winds: from the ESE (120 degrees) at 6 MPH (5 knots; 2.6 m/s)
Visibility: 10 or more miles (16+ km)
Ceiling: 3600 feet AGL
Clouds: scattered clouds at 2500 feet AGL
broken clouds at 3600 feet AGL
overcast cloud deck at 5000 feet AGL
Weather: no significant weather observed at this time

METAR text: KPIT 230919Z 12007KT 5SM -RA BR BKN017 BKN030 OVC070 18/17 A2976 RMK AO2 LTG DSNT N P0008 T01780172
Conditions at: KPIT (PITTSBURGH , PA, US) observed 0919 UTC 23 June 2018
Temperature: 17.8°C (64°F)
Dewpoint: 17.2°C (63°F) [RH = 96%]
Pressure (altimeter): 29.76 inches Hg (1007.9 mb)
Winds: from the ESE (120 degrees) at 8 MPH (7 knots; 3.6 m/s)
Visibility: 5 miles (8 km)
Ceiling: 1700 feet AGL
Clouds: broken clouds at 1700 feet AGL
broken clouds at 3000 feet AGL
overcast cloud deck at 7000 feet AGL
Weather: -RA BR  (light rain, mist)

METAR text: KPIT 230851Z VRB03KT 6SM -RA BR FEW017 BKN048 OVC055 18/17 A2976 RMK AO2 SLP077 P0008 60008 T01830172 56004
Conditions at: KPIT (PITTSBURGH , PA, US) observed 0851 UTC 23 June 2018
Temperature: 18.3°C (65°F)
Dewpoint: 17.2°C (63°F) [RH = 93%]
Pressure (altimeter): 29.76 inches Hg (1007.9 mb)
[Sea-level pressure: 1007.7 mb]
Winds: variable direction winds at 3 MPH (3 knots; 1.6 m/s)
Visibility: 6 miles (10 km)
Ceiling: 4800 feet AGL
Clouds: few clouds at 1700 feet AGL
broken clouds at 4800 feet AGL
overcast cloud deck at 5500 feet AGL
Weather: -RA BR  (light rain, mist)

METAR text: KPIT 230751Z 13006KT 10SM -RA SCT050 BKN095 OVC140 19/16 A2976 RMK AO2 RAB49 SLP078 P0000 T01890161
Conditions at: KPIT (PITTSBURGH , PA, US) observed 0751 UTC 23 June 2018
Temperature: 18.9°C (66°F)
Dewpoint: 16.1°C (61°F) [RH = 84%]
Pressure (altimeter): 29.76 inches Hg (1007.9 mb)
[Sea-level pressure: 1007.8 mb]
Winds: from the SE (130 degrees) at 7 MPH (6 knots; 3.1 m/s)
Visibility: 10 or more miles (16+ km)
Ceiling: 9500 feet AGL
Clouds: scattered clouds at 5000 feet AGL
broken clouds at 9500 feet AGL
overcast cloud deck at 14000 feet AGL
Weather: -RA  (light rain)

METAR text: KPIT 230651Z 12008KT 10SM FEW075 OVC140 19/16 A2976 RMK AO2 SLP078 T01890161
Conditions at: KPIT (PITTSBURGH , PA, US) observed 0651 UTC 23 June 2018
Temperature: 18.9°C (66°F)
Dewpoint: 16.1°C (61°F) [RH = 84%]
Pressure (altimeter): 29.76 inches Hg (1007.9 mb)
[Sea-level pressure: 1007.8 mb]
Winds: from the ESE (120 degrees) at 9 MPH (8 knots; 4.2 m/s)
Visibility: 10 or more miles (16+ km)
Ceiling: 14000 feet AGL
Clouds: few clouds at 7500 feet AGL
overcast cloud deck at 14000 feet AGL
Weather: no significant weather observed at this time

METAR text: KPIT 230551Z 11007KT 10SM OVC150 19/16 A2977 RMK AO2 SLP080 60000 T01890161 10211 20189 58011
Conditions at: KPIT (PITTSBURGH , PA, US) observed 0551 UTC 23 June 2018
Temperature: 18.9°C (66°F)
Dewpoint: 16.1°C (61°F) [RH = 84%]
Pressure (altimeter): 29.77 inches Hg (1008.2 mb)
[Sea-level pressure: 1008.0 mb]
Winds: from the ESE (110 degrees) at 8 MPH (7 knots; 3.6 m/s)
Visibility: 10 or more miles (16+ km)
Ceiling: 15000 feet AGL
Clouds: overcast cloud deck at 15000 feet AGL
Weather: no significant weather observed at this time

METAR text: KPIT 230451Z 13007KT 10SM BKN130 19/16 A2979 RMK AO2 SLP089 T01890161 402390172
Conditions at: KPIT (PITTSBURGH , PA, US) observed 0451 UTC 23 June 2018
Temperature: 18.9°C (66°F)
Dewpoint: 16.1°C (61°F) [RH = 84%]
Pressure (altimeter): 29.79 inches Hg (1008.9 mb)
[Sea-level pressure: 1008.9 mb]
Winds: from the SE (130 degrees) at 8 MPH (7 knots; 3.6 m/s)
Visibility: 10 or more miles (16+ km)
Ceiling: 13000 feet AGL
Clouds: broken clouds at 13000 feet AGL
Weather: no significant weather observed at this time

METAR text: KPIT 230351Z 11007KT 10SM BKN140 BKN230 19/16 A2979 RMK AO2 SLP088 T01890161
Conditions at: KPIT (PITTSBURGH , PA, US) observed 0351 UTC 23 June 2018
Temperature: 18.9°C (66°F)
Dewpoint: 16.1°C (61°F) [RH = 84%]
Pressure (altimeter): 29.79 inches Hg (1008.9 mb)
[Sea-level pressure: 1008.8 mb]
Winds: from the ESE (110 degrees) at 8 MPH (7 knots; 3.6 m/s)
Visibility: 10 or more miles (16+ km)
Ceiling: 14000 feet AGL
Clouds: broken clouds at 14000 feet AGL
broken clouds at 23000 feet AGL
Weather: no significant weather observed at this time

METAR text: KPIT 230251Z 12008KT 10SM FEW023 BKN140 BKN220 19/16 A2981 RMK AO2 RAB13E25 SLP094 P0000 60000 T01940161 53002
Conditions at: KPIT (PITTSBURGH , PA, US) observed 0251 UTC 23 June 2018
Temperature: 19.4°C (67°F)
Dewpoint: 16.1°C (61°F) [RH = 81%]
Pressure (altimeter): 29.81 inches Hg (1009.6 mb)
[Sea-level pressure: 1009.4 mb]
Winds: from the ESE (120 degrees) at 9 MPH (8 knots; 4.2 m/s)
Visibility: 10 or more miles (16+ km)
Ceiling: 14000 feet AGL
Clouds: few clouds at 2300 feet AGL
broken clouds at 14000 feet AGL
broken clouds at 22000 feet AGL
Weather: no significant weather observed at this time

METAR text: KPIT 230151Z 11010KT 10SM FEW048 BKN130 OVC200 20/16 A2979 RMK AO2 SLP088 T02000161
Conditions at: KPIT (PITTSBURGH , PA, US) observed 0151 UTC 23 June 2018
Temperature: 20.0°C (68°F)
Dewpoint: 16.1°C (61°F) [RH = 78%]
Pressure (altimeter): 29.79 inches Hg (1008.9 mb)
[Sea-level pressure: 1008.8 mb]
Winds: from the ESE (110 degrees) at 12 MPH (10 knots; 5.2 m/s)
Visibility: 10 or more miles (16+ km)
Ceiling: 13000 feet AGL
Clouds: few clouds at 4800 feet AGL
broken clouds at 13000 feet AGL
overcast cloud deck at 20000 feet AGL
Weather: no significant weather observed at this time

METAR text: KPIT 230051Z 11008KT 10SM FEW028 SCT048 BKN130 21/16 A2981 RMK AO2 SLP096 T02060161
Conditions at: KPIT (PITTSBURGH , PA, US) observed 0051 UTC 23 June 2018
Temperature: 20.6°C (69°F)
Dewpoint: 16.1°C (61°F) [RH = 75%]
Pressure (altimeter): 29.81 inches Hg (1009.6 mb)
[Sea-level pressure: 1009.6 mb]
Winds: from the ESE (110 degrees) at 9 MPH (8 knots; 4.2 m/s)
Visibility: 10 or more miles (16+ km)
Ceiling: 13000 feet AGL
Clouds: few clouds at 2800 feet AGL
scattered clouds at 4800 feet AGL
broken clouds at 13000 feet AGL
Weather: no significant weather observed at this time

METAR text: KPIT 222351Z 12012KT 10SM FEW030 BKN120 BKN250 21/16 A2980 RMK AO2 SLP092 60000 T02110161 10239 20206 55004
Conditions at: KPIT (PITTSBURGH , PA, US) observed 2351 UTC 22 June 2018
Temperature: 21.1°C (70°F)
Dewpoint: 16.1°C (61°F) [RH = 73%]
Pressure (altimeter): 29.80 inches Hg (1009.2 mb)
[Sea-level pressure: 1009.2 mb]
Winds: from the ESE (120 degrees) at 14 MPH (12 knots; 6.2 m/s)
Visibility: 10 or more miles (16+ km)
Ceiling: 12000 feet AGL
Clouds: few clouds at 3000 feet AGL
broken clouds at 12000 feet AGL
broken clouds at 25000 feet AGL
Weather: no significant weather observed at this time

METAR text: KPIT 222251Z 12011KT 10SM FEW025 BKN100 BKN150 21/17 A2980 RMK AO2 SLP091 T02110167
Conditions at: KPIT (PITTSBURGH , PA, US) observed 2251 UTC 22 June 2018
Temperature: 21.1°C (70°F)
Dewpoint: 16.7°C (62°F) [RH = 76%]
Pressure (altimeter): 29.80 inches Hg (1009.2 mb)
[Sea-level pressure: 1009.1 mb]
Winds: from the ESE (120 degrees) at 13 MPH (11 knots; 5.7 m/s)
Visibility: 10 or more miles (16+ km)
Ceiling: 10000 feet AGL
Clouds: few clouds at 2500 feet AGL
broken clouds at 10000 feet AGL
broken clouds at 15000 feet AGL
Weather: no significant weather observed at this time

METAR text: KPIT 222151Z 11012KT 10SM FEW028 SCT050 BKN100 21/17 A2980 RMK AO2 RAE09 SLP092 P0000 T02110167
Conditions at: KPIT (PITTSBURGH , PA, US) observed 2151 UTC 22 June 2018
Temperature: 21.1°C (70°F)
Dewpoint: 16.7°C (62°F) [RH = 76%]
Pressure (altimeter): 29.80 inches Hg (1009.2 mb)
[Sea-level pressure: 1009.2 mb]
Winds: from the ESE (110 degrees) at 14 MPH (12 knots; 6.2 m/s)
Visibility: 10 or more miles (16+ km)
Ceiling: 10000 feet AGL
Clouds: few clouds at 2800 feet AGL
scattered clouds at 5000 feet AGL
broken clouds at 10000 feet AGL
Weather: no significant weather observed at this time

METAR text: KPIT 222051Z 13015KT 10SM -RA SCT029 BKN045 OVC100 22/16 A2981 RMK AO2 RAB38 SLP095 P0000 60000 T02220161 53000
Conditions at: KPIT (PITTSBURGH , PA, US) observed 2051 UTC 22 June 2018
Temperature: 22.2°C (72°F)
Dewpoint: 16.1°C (61°F) [RH = 68%]
Pressure (altimeter): 29.81 inches Hg (1009.6 mb)
[Sea-level pressure: 1009.5 mb]
Winds: from the SE (130 degrees) at 17 MPH (15 knots; 7.8 m/s)
Visibility: 10 or more miles (16+ km)
Ceiling: 4500 feet AGL
Clouds: scattered clouds at 2900 feet AGL
broken clouds at 4500 feet AGL
overcast cloud deck at 10000 feet AGL
Weather: -RA  (light rain)

METAR text: KPIT 221951Z 13014KT 10SM FEW025 BKN045 BKN150 23/16 A2981 RMK AO2 SLP095 T02280161
Conditions at: KPIT (PITTSBURGH , PA, US) observed 1951 UTC 22 June 2018
Temperature: 22.8°C (73°F)
Dewpoint: 16.1°C (61°F) [RH = 66%]
Pressure (altimeter): 29.81 inches Hg (1009.6 mb)
[Sea-level pressure: 1009.5 mb]
Winds: from the SE (130 degrees) at 16 MPH (14 knots; 7.3 m/s)
Visibility: 10 or more miles (16+ km)
Ceiling: 4500 feet AGL
Clouds: few clouds at 2500 feet AGL
broken clouds at 4500 feet AGL
broken clouds at 15000 feet AGL
Weather: no significant weather observed at this time

METAR text: KPIT 221851Z 11014KT 10SM SCT027 BKN038 BKN070 23/17 A2980 RMK AO2 SLP091 T02280167
Conditions at: KPIT (PITTSBURGH , PA, US) observed 1851 UTC 22 June 2018
Temperature: 22.8°C (73°F)
Dewpoint: 16.7°C (62°F) [RH = 68%]
Pressure (altimeter): 29.80 inches Hg (1009.2 mb)
[Sea-level pressure: 1009.1 mb]
Winds: from the ESE (110 degrees) at 16 MPH (14 knots; 7.3 m/s)
Visibility: 10 or more miles (16+ km)
Ceiling: 3800 feet AGL
Clouds: scattered clouds at 2700 feet AGL
broken clouds at 3800 feet AGL
broken clouds at 7000 feet AGL
Weather: no significant weather observed at this time

METAR text: KPIT 221751Z 13014KT 10SM SCT022 BKN032 BKN060 24/17 A2981 RMK AO2 SLP094 60003 T02390172 10239 20178 58011
Conditions at: KPIT (PITTSBURGH , PA, US) observed 1751 UTC 22 June 2018
Temperature: 23.9°C (75°F)
Dewpoint: 17.2°C (63°F) [RH = 66%]
Pressure (altimeter): 29.81 inches Hg (1009.6 mb)
[Sea-level pressure: 1009.4 mb]
Winds: from the SE (130 degrees) at 16 MPH (14 knots; 7.3 m/s)
Visibility: 10 or more miles (16+ km)
Ceiling: 3200 feet AGL
Clouds: scattered clouds at 2200 feet AGL
broken clouds at 3200 feet AGL
broken clouds at 6000 feet AGL
Weather: no significant weather observed at this time

METAR text: KPIT 221651Z 12013KT 10SM FEW013 BKN037 OVC050 23/18 A2983 RMK AO2 SLP101 T02280183
Conditions at: KPIT (PITTSBURGH , PA, US) observed 1651 UTC 22 June 2018
Temperature: 22.8°C (73°F)
Dewpoint: 18.3°C (65°F) [RH = 76%]
Pressure (altimeter): 29.83 inches Hg (1010.2 mb)
[Sea-level pressure: 1010.1 mb]
Winds: from the ESE (120 degrees) at 15 MPH (13 knots; 6.8 m/s)
Visibility: 10 or more miles (16+ km)
Ceiling: 3700 feet AGL
Clouds: few clouds at 1300 feet AGL
broken clouds at 3700 feet AGL
overcast cloud deck at 5000 feet AGL
Weather: no significant weather observed at this time

METAR text: KPIT 221551Z 12013KT 10SM FEW009 SCT036 OVC050 21/18 A2984 RMK AO2 RAB11E22 SLP102 P0000 T02110178
Conditions at: KPIT (PITTSBURGH , PA, US) observed 1551 UTC 22 June 2018
Temperature: 21.1°C (70°F)
Dewpoint: 17.8°C (64°F) [RH = 81%]
Pressure (altimeter): 29.84 inches Hg (1010.6 mb)
[Sea-level pressure: 1010.2 mb]
Winds: from the ESE (120 degrees) at 15 MPH (13 knots; 6.8 m/s)
Visibility: 10 or more miles (16+ km)
Ceiling: 5000 feet AGL
Clouds: few clouds at 900 feet AGL
scattered clouds at 3600 feet AGL
overcast cloud deck at 5000 feet AGL
Weather: no significant weather observed at this time

METAR text: KPIT 221451Z 12011KT 10SM SCT007 BKN033 OVC048 19/18 A2984 RMK AO2 RAE45 SLP106 BINOVC P0003 60003 T01940183 50003
Conditions at: KPIT (PITTSBURGH , PA, US) observed 1451 UTC 22 June 2018
Temperature: 19.4°C (67°F)
Dewpoint: 18.3°C (65°F) [RH = 93%]
Pressure (altimeter): 29.84 inches Hg (1010.6 mb)
[Sea-level pressure: 1010.6 mb]
Winds: from the ESE (120 degrees) at 13 MPH (11 knots; 5.7 m/s)
Visibility: 10 or more miles (16+ km)
Ceiling: 3300 feet AGL
Clouds: scattered clouds at 700 feet AGL
broken clouds at 3300 feet AGL
overcast cloud deck at 4800 feet AGL
Weather: no significant weather observed at this time

METAR text: KPIT 221351Z 12011KT 5SM R28R/4500VP6000FT -RA BR FEW009 BKN029 OVC047 18/17 A2985 RMK AO2 DZE17RAB17 SLP107 VIS E-SE 1 1/2 P0000 T01830172
Conditions at: KPIT (PITTSBURGH , PA, US) observed 1351 UTC 22 June 2018
Temperature: 18.3°C (65°F)
Dewpoint: 17.2°C (63°F) [RH = 93%]
Pressure (altimeter): 29.85 inches Hg (1010.9 mb)
[Sea-level pressure: 1010.7 mb]
Winds: from the ESE (120 degrees) at 13 MPH (11 knots; 5.7 m/s)
Visibility: 5 miles (8 km)
Ceiling: 2900 feet AGL
Clouds: few clouds at 900 feet AGL
broken clouds at 2900 feet AGL
overcast cloud deck at 4700 feet AGL
Weather: -RA BR  (light rain, mist)

METAR text: KPIT 221251Z 11009KT 10SM -DZ FEW009 BKN029 OVC038 18/17 A2984 RMK AO2 RAB33E45DZB45 SLP105 P0000 T01830167
Conditions at: KPIT (PITTSBURGH , PA, US) observed 1251 UTC 22 June 2018
Temperature: 18.3°C (65°F)
Dewpoint: 16.7°C (62°F) [RH = 90%]
Pressure (altimeter): 29.84 inches Hg (1010.6 mb)
[Sea-level pressure: 1010.5 mb]
Winds: from the ESE (110 degrees) at 10 MPH (9 knots; 4.7 m/s)
Visibility: 10 or more miles (16+ km)
Ceiling: 2900 feet AGL
Clouds: few clouds at 900 feet AGL
broken clouds at 2900 feet AGL
overcast cloud deck at 3800 feet AGL
Weather: -DZ  (light drizzle)

METAR text: KPIT 221151Z 10012KT 10SM FEW008 SCT014 OVC029 18/17 A2983 RMK AO2 SLP102 60023 70024 T01780167 10200 20172 51007
Conditions at: KPIT (PITTSBURGH , PA, US) observed 1151 UTC 22 June 2018
Temperature: 17.8°C (64°F)
Dewpoint: 16.7°C (62°F) [RH = 93%]
Pressure (altimeter): 29.83 inches Hg (1010.2 mb)
[Sea-level pressure: 1010.2 mb]
Winds: from the E (100 degrees) at 14 MPH (12 knots; 6.2 m/s)
Visibility: 10 or more miles (16+ km)
Ceiling: 2900 feet AGL
Clouds: few clouds at 800 feet AGL
scattered clouds at 1400 feet AGL
overcast cloud deck at 2900 feet AGL
Weather: no significant weather observed at this time